sensor_id;sensor_type;location;lat;lon;timestamp;pressure;altitude;pressure_sealevel;temperature;humidity
60099;BME280;45976;49.400;8.682;2022-07-03T00:00:17;100419.91;;;22.27;52.67
60099;BME280;45976;49.400;8.682;2022-07-03T00:01:18;100423.13;;;21.85;53.95
60099;BME280;45976;49.400;8.682;2022-07-03T00:02:19;100424.41;;;21.66;54.52
60099;BME280;45976;49.400;8.682;2022-07-03T00:03:20;100422.09;;;21.75;53.89
60099;BME280;45976;49.400;8.682;2022-07-03T00:04:20;100419.47;;;21.96;52.72
60099;BME280;45976;49.400;8.682;2022-07-03T00:05:22;100418.69;;;21.63;53.64
60099;BME280;45976;49.400;8.682;2022-07-03T00:06:23;100426.09;;;21.72;53.51
60099;BME280;45976;49.400;8.682;2022-07-03T00:07:25;100419.75;;;21.78;53.06
60099;BME280;45976;49.400;8.682;2022-07-03T00:08:25;100418.66;;;21.79;53.23
60099;BME280;45976;49.400;8.682;2022-07-03T00:09:26;100428.06;;;22.32;51.95
60099;BME280;45976;49.400;8.682;2022-07-03T00:10:27;100420.72;;;22.27;52.42
60099;BME280;45976;49.400;8.682;2022-07-03T00:11:27;100418.72;;;22.61;51.56
60099;BME280;45976;49.400;8.682;2022-07-03T00:12:28;100417.00;;;22.76;50.85
60099;BME280;45976;49.400;8.682;2022-07-03T00:13:29;100421.25;;;22.07;52.50
60099;BME280;45976;49.400;8.682;2022-07-03T00:14:30;100414.41;;;22.00;53.05
60099;BME280;45976;49.400;8.682;2022-07-03T00:15:32;100424.66;;;21.48;54.00
60099;BME280;45976;49.400;8.682;2022-07-03T00:16:32;100422.84;;;21.70;53.72
60099;BME280;45976;49.400;8.682;2022-07-03T00:17:33;100419.19;;;21.43;54.42
60099;BME280;45976;49.400;8.682;2022-07-03T00:18:34;100416.09;;;21.51;54.45
60099;BME280;45976;49.400;8.682;2022-07-03T00:19:34;100419.56;;;22.01;53.05
60099;BME280;45976;49.400;8.682;2022-07-03T00:20:40;100421.78;;;22.48;51.77
60099;BME280;45976;49.400;8.682;2022-07-03T00:21:57;100418.97;;;22.59;51.35
60099;BME280;45976;49.400;8.682;2022-07-03T00:23:04;100425.13;;;22.33;51.90
60099;BME280;45976;49.400;8.682;2022-07-03T00:24:16;100418.34;;;21.59;53.70
60099;BME280;45976;49.400;8.682;2022-07-03T00:25:23;100431.13;;;21.47;54.21
60099;BME280;45976;49.400;8.682;2022-07-03T00:26:24;100422.47;;;21.45;54.29
60099;BME280;45976;49.400;8.682;2022-07-03T00:27:31;100420.97;;;21.21;54.84
60099;BME280;45976;49.400;8.682;2022-07-03T00:28:36;100420.09;;;21.32;54.86
60099;BME280;45976;49.400;8.682;2022-07-03T00:29:41;100416.56;;;21.31;55.15
60099;BME280;45976;49.400;8.682;2022-07-03T00:30:45;100424.19;;;21.34;54.92
60099;BME280;45976;49.400;8.682;2022-07-03T00:31:49;100415.09;;;21.24;55.19
60099;BME280;45976;49.400;8.682;2022-07-03T00:32:50;100419.44;;;21.25;55.14
60099;BME280;45976;49.400;8.682;2022-07-03T00:33:54;100418.84;;;21.23;55.23
60099;BME280;45976;49.400;8.682;2022-07-03T00:34:58;100413.63;;;21.16;55.40
60099;BME280;45976;49.400;8.682;2022-07-03T00:35:59;100413.38;;;21.18;55.49
60099;BME280;45976;49.400;8.682;2022-07-03T00:37:00;100414.75;;;21.20;55.69
60099;BME280;45976;49.400;8.682;2022-07-03T00:38:04;100413.88;;;21.15;55.59
60099;BME280;45976;49.400;8.682;2022-07-03T00:39:05;100411.81;;;21.05;55.99
60099;BME280;45976;49.400;8.682;2022-07-03T00:40:06;100410.00;;;21.11;55.82
60099;BME280;45976;49.400;8.682;2022-07-03T00:41:07;100416.63;;;21.20;55.46
60099;BME280;45976;49.400;8.682;2022-07-03T00:42:09;100416.47;;;21.10;55.80
60099;BME280;45976;49.400;8.682;2022-07-03T00:43:13;100420.47;;;21.24;55.33
60099;BME280;45976;49.400;8.682;2022-07-03T00:44:17;100410.41;;;21.19;55.48
60099;BME280;45976;49.400;8.682;2022-07-03T00:45:20;100414.09;;;21.13;55.85
60099;BME280;45976;49.400;8.682;2022-07-03T00:46:23;100417.28;;;21.77;54.09
60099;BME280;45976;49.400;8.682;2022-07-03T00:47:26;100422.19;;;21.96;53.30
60099;BME280;45976;49.400;8.682;2022-07-03T00:48:27;100422.25;;;22.01;53.12
60099;BME280;45976;49.400;8.682;2022-07-03T00:49:32;100421.81;;;21.38;54.83
60099;BME280;45976;49.400;8.682;2022-07-03T00:50:35;100413.63;;;21.16;55.73
60099;BME280;45976;49.400;8.682;2022-07-03T00:51:38;100419.19;;;21.43;55.14
60099;BME280;45976;49.400;8.682;2022-07-03T00:52:46;100415.75;;;21.31;55.61
60099;BME280;45976;49.400;8.682;2022-07-03T00:53:53;100409.38;;;21.04;56.10
60099;BME280;45976;49.400;8.682;2022-07-03T00:54:59;100411.44;;;21.02;56.45
60099;BME280;45976;49.400;8.682;2022-07-03T00:56:03;100418.59;;;21.08;56.57
60099;BME280;45976;49.400;8.682;2022-07-03T00:57:07;100416.16;;;21.56;54.91
60099;BME280;45976;49.400;8.682;2022-07-03T00:58:18;100420.78;;;21.11;56.61
60099;BME280;45976;49.400;8.682;2022-07-03T00:59:20;100423.19;;;20.96;57.40
60099;BME280;45976;49.400;8.682;2022-07-03T01:00:21;100417.63;;;20.86;57.84
60099;BME280;45976;49.400;8.682;2022-07-03T01:01:27;100414.50;;;20.77;58.25
60099;BME280;45976;49.400;8.682;2022-07-03T01:05:50;100414.59;;;20.42;60.33
60099;BME280;45976;49.400;8.682;2022-07-03T01:08:42;100424.47;;;20.25;61.69
60099;BME280;45976;49.400;8.682;2022-07-03T01:10:00;100407.28;;;20.26;61.86
60099;BME280;45976;49.400;8.682;2022-07-03T01:12:49;100407.78;;;20.00;62.82
60099;BME280;45976;49.400;8.682;2022-07-03T01:14:19;100413.25;;;20.05;63.08
60099;BME280;45976;49.400;8.682;2022-07-03T01:15:36;100421.00;;;20.02;63.09
60099;BME280;45976;49.400;8.682;2022-07-03T01:17:15;100416.44;;;20.02;63.26
60099;BME280;45976;49.400;8.682;2022-07-03T01:18:35;100417.59;;;20.06;62.80
60099;BME280;45976;49.400;8.682;2022-07-03T01:20:01;100417.72;;;20.00;62.87
60099;BME280;45976;49.400;8.682;2022-07-03T01:21:11;100421.81;;;20.02;62.69
60099;BME280;45976;49.400;8.682;2022-07-03T01:22:36;100411.72;;;20.09;62.43
60099;BME280;45976;49.400;8.682;2022-07-03T01:25:45;100417.47;;;20.01;62.74
60099;BME280;45976;49.400;8.682;2022-07-03T01:26:50;100421.22;;;20.00;63.00
60099;BME280;45976;49.400;8.682;2022-07-03T01:28:12;100414.06;;;19.94;63.08
60099;BME280;45976;49.400;8.682;2022-07-03T01:29:22;100412.91;;;19.90;63.54
60099;BME280;45976;49.400;8.682;2022-07-03T01:30:35;100417.09;;;20.09;62.92
60099;BME280;45976;49.400;8.682;2022-07-03T01:31:40;100415.84;;;20.00;63.29
60099;BME280;45976;49.400;8.682;2022-07-03T01:32:44;100417.84;;;19.93;63.36
60099;BME280;45976;49.400;8.682;2022-07-03T01:33:50;100411.50;;;19.99;63.02
60099;BME280;45976;49.400;8.682;2022-07-03T01:34:52;100422.72;;;20.19;61.99
60099;BME280;45976;49.400;8.682;2022-07-03T01:36:13;100414.91;;;21.14;58.62
60099;BME280;45976;49.400;8.682;2022-07-03T01:37:17;100415.50;;;21.16;58.31
60099;BME280;45976;49.400;8.682;2022-07-03T01:38:22;100409.06;;;21.17;58.35
60099;BME280;45976;49.400;8.682;2022-07-03T01:39:26;100414.44;;;20.60;59.88
60099;BME280;45976;49.400;8.682;2022-07-03T01:40:28;100413.38;;;20.33;61.04
60099;BME280;45976;49.400;8.682;2022-07-03T01:41:30;100410.41;;;20.75;59.48
60099;BME280;45976;49.400;8.682;2022-07-03T01:42:33;100409.53;;;21.14;58.03
60099;BME280;45976;49.400;8.682;2022-07-03T01:43:48;100407.44;;;20.59;60.35
60099;BME280;45976;49.400;8.682;2022-07-03T01:44:54;100399.03;;;20.44;60.64
60099;BME280;45976;49.400;8.682;2022-07-03T01:46:01;100402.03;;;20.88;58.90
60099;BME280;45976;49.400;8.682;2022-07-03T01:47:03;100406.09;;;21.35;57.54
60099;BME280;45976;49.400;8.682;2022-07-03T01:48:07;100400.31;;;21.10;58.65
60099;BME280;45976;49.400;8.682;2022-07-03T01:49:11;100402.19;;;20.81;59.27
60099;BME280;45976;49.400;8.682;2022-07-03T01:50:15;100408.41;;;21.43;57.30
60099;BME280;45976;49.400;8.682;2022-07-03T01:51:16;100407.56;;;21.76;56.28
60099;BME280;45976;49.400;8.682;2022-07-03T01:52:17;100412.06;;;21.87;55.96
60099;BME280;45976;49.400;8.682;2022-07-03T01:53:23;100403.16;;;21.70;56.67
60099;BME280;45976;49.400;8.682;2022-07-03T01:54:28;100405.94;;;21.58;57.01
60099;BME280;45976;49.400;8.682;2022-07-03T01:55:31;100404.47;;;21.34;58.24
60099;BME280;45976;49.400;8.682;2022-07-03T01:56:34;100398.84;;;20.91;59.66
60099;BME280;45976;49.400;8.682;2022-07-03T01:57:45;100402.44;;;21.24;58.10
60099;BME280;45976;49.400;8.682;2022-07-03T01:58:48;100399.56;;;21.14;58.81
60099;BME280;45976;49.400;8.682;2022-07-03T01:59:50;100389.13;;;20.90;59.47
60099;BME280;45976;49.400;8.682;2022-07-03T02:02:24;100395.16;;;21.25;58.50
60099;BME280;45976;49.400;8.682;2022-07-03T02:03:32;100390.47;;;20.76;60.26
60099;BME280;45976;49.400;8.682;2022-07-03T02:04:47;100386.25;;;20.80;59.96
60099;BME280;45976;49.400;8.682;2022-07-03T02:06:09;100382.97;;;20.49;61.27
60099;BME280;45976;49.400;8.682;2022-07-03T02:07:47;100381.09;;;20.78;60.37
60099;BME280;45976;49.400;8.682;2022-07-03T02:09:04;100381.72;;;20.40;61.26
60099;BME280;45976;49.400;8.682;2022-07-03T02:10:08;100381.06;;;20.33;61.76
60099;BME280;45976;49.400;8.682;2022-07-03T02:11:17;100379.06;;;20.17;62.17
60099;BME280;45976;49.400;8.682;2022-07-03T02:12:27;100386.91;;;20.07;62.77
60099;BME280;45976;49.400;8.682;2022-07-03T02:13:38;100385.19;;;20.52;61.04
60099;BME280;45976;49.400;8.682;2022-07-03T02:15:01;100383.09;;;20.54;60.39
60099;BME280;45976;49.400;8.682;2022-07-03T02:16:07;100383.50;;;20.12;61.55
60099;BME280;45976;49.400;8.682;2022-07-03T02:17:15;100382.22;;;20.14;61.05
60099;BME280;45976;49.400;8.682;2022-07-03T02:20:46;100394.84;;;21.21;57.81
60099;BME280;45976;49.400;8.682;2022-07-03T02:21:57;100387.31;;;21.07;58.94
60099;BME280;45976;49.400;8.682;2022-07-03T02:23:00;100387.50;;;21.50;57.10
60099;BME280;45976;49.400;8.682;2022-07-03T02:24:16;100392.38;;;21.53;57.15
60099;BME280;45976;49.400;8.682;2022-07-03T02:25:25;100396.38;;;21.17;58.11
60099;BME280;45976;49.400;8.682;2022-07-03T02:26:33;100397.69;;;21.48;57.07
60099;BME280;45976;49.400;8.682;2022-07-03T02:27:54;100390.91;;;21.62;56.65
60099;BME280;45976;49.400;8.682;2022-07-03T02:29:15;100391.84;;;20.61;59.75
60099;BME280;45976;49.400;8.682;2022-07-03T02:30:22;100404.78;;;20.48;60.55
60099;BME280;45976;49.400;8.682;2022-07-03T02:31:26;100407.56;;;21.26;58.19
60099;BME280;45976;49.400;8.682;2022-07-03T02:32:28;100404.94;;;21.64;56.68
60099;BME280;45976;49.400;8.682;2022-07-03T02:33:36;100402.16;;;21.59;56.85
60099;BME280;45976;49.400;8.682;2022-07-03T02:34:45;100405.94;;;21.58;57.21
60099;BME280;45976;49.400;8.682;2022-07-03T02:35:54;100408.56;;;21.70;56.58
60099;BME280;45976;49.400;8.682;2022-07-03T02:37:12;100406.25;;;21.62;56.99
60099;BME280;45976;49.400;8.682;2022-07-03T02:38:20;100407.69;;;21.03;58.78
60099;BME280;45976;49.400;8.682;2022-07-03T02:39:38;100414.53;;;21.38;57.43
60099;BME280;45976;49.400;8.682;2022-07-03T02:41:02;100413.97;;;21.36;57.43
60099;BME280;45976;49.400;8.682;2022-07-03T02:42:19;100423.97;;;20.80;58.78
60099;BME280;45976;49.400;8.682;2022-07-03T02:43:31;100417.41;;;20.76;58.74
60099;BME280;45976;49.400;8.682;2022-07-03T02:44:46;100422.03;;;20.63;59.46
60099;BME280;45976;49.400;8.682;2022-07-03T02:46:10;100413.69;;;20.37;60.80
60099;BME280;45976;49.400;8.682;2022-07-03T02:47:35;100416.88;;;20.11;60.88
60099;BME280;45976;49.400;8.682;2022-07-03T02:48:45;100424.16;;;19.87;61.35
60099;BME280;45976;49.400;8.682;2022-07-03T02:49:56;100425.28;;;20.14;61.00
60099;BME280;45976;49.400;8.682;2022-07-03T02:51:19;100423.97;;;20.80;59.10
60099;BME280;45976;49.400;8.682;2022-07-03T02:53:43;100424.59;;;20.30;60.10
60099;BME280;45976;49.400;8.682;2022-07-03T02:54:51;100421.81;;;20.02;61.71
60099;BME280;45976;49.400;8.682;2022-07-03T02:56:27;100411.75;;;19.86;62.27
60099;BME280;45976;49.400;8.682;2022-07-03T02:57:44;100424.72;;;19.54;63.86
60099;BME280;45976;49.400;8.682;2022-07-03T03:00:12;100418.31;;;19.67;63.55
60099;BME280;45976;49.400;8.682;2022-07-03T03:01:20;100418.06;;;19.57;64.18
60099;BME280;45976;49.400;8.682;2022-07-03T03:05:49;100420.75;;;19.45;65.05
60099;BME280;45976;49.400;8.682;2022-07-03T03:06:56;100422.16;;;19.36;65.28
60099;BME280;45976;49.400;8.682;2022-07-03T03:09:39;100421.75;;;19.33;65.31
60099;BME280;45976;49.400;8.682;2022-07-03T03:10:45;100421.31;;;19.06;66.55
60099;BME280;45976;49.400;8.682;2022-07-03T03:11:52;100426.59;;;19.12;66.19
60099;BME280;45976;49.400;8.682;2022-07-03T03:13:06;100428.50;;;19.23;65.80
60099;BME280;45976;49.400;8.682;2022-07-03T03:14:11;100427.44;;;19.89;63.20
60099;BME280;45976;49.400;8.682;2022-07-03T03:15:13;100436.41;;;20.18;62.32
60099;BME280;45976;49.400;8.682;2022-07-03T03:16:14;100437.00;;;19.85;63.58
60099;BME280;45976;49.400;8.682;2022-07-03T03:17:17;100433.13;;;19.46;64.99
60099;BME280;45976;49.400;8.682;2022-07-03T03:18:27;100436.63;;;19.35;65.60
60099;BME280;45976;49.400;8.682;2022-07-03T03:19:36;100428.34;;;19.07;67.00
60099;BME280;45976;49.400;8.682;2022-07-03T03:20:46;100438.53;;;19.58;64.92
60099;BME280;45976;49.400;8.682;2022-07-03T03:22:07;100435.16;;;20.60;60.94
60099;BME280;45976;49.400;8.682;2022-07-03T03:24:53;100446.09;;;19.38;65.91
60099;BME280;45976;49.400;8.682;2022-07-03T03:25:53;100441.34;;;19.21;66.65
60099;BME280;45976;49.400;8.682;2022-07-03T03:26:54;100443.56;;;19.13;67.07
60099;BME280;45976;49.400;8.682;2022-07-03T03:27:59;100437.69;;;19.04;67.54
60099;BME280;45976;49.400;8.682;2022-07-03T03:28:59;100448.28;;;18.99;67.74
60099;BME280;45976;49.400;8.682;2022-07-03T03:30:00;100450.63;;;18.96;68.10
60099;BME280;45976;49.400;8.682;2022-07-03T03:31:01;100445.94;;;18.91;68.20
60099;BME280;45976;49.400;8.682;2022-07-03T03:32:07;100456.25;;;18.94;68.04
60099;BME280;45976;49.400;8.682;2022-07-03T03:33:09;100448.47;;;18.86;68.43
60099;BME280;45976;49.400;8.682;2022-07-03T03:34:11;100451.22;;;18.98;68.02
60099;BME280;45976;49.400;8.682;2022-07-03T03:35:12;100454.22;;;18.90;68.30
60099;BME280;45976;49.400;8.682;2022-07-03T03:36:14;100457.38;;;18.69;69.21
60099;BME280;45976;49.400;8.682;2022-07-03T03:37:17;100454.25;;;18.72;69.32
60099;BME280;45976;49.400;8.682;2022-07-03T03:38:18;100463.59;;;18.69;69.54
60099;BME280;45976;49.400;8.682;2022-07-03T03:39:19;100457.00;;;18.83;69.09
60099;BME280;45976;49.400;8.682;2022-07-03T03:40:20;100464.91;;;18.78;69.21
60099;BME280;45976;49.400;8.682;2022-07-03T03:41:20;100461.88;;;18.75;69.52
60099;BME280;45976;49.400;8.682;2022-07-03T03:42:21;100468.13;;;18.69;69.94
60099;BME280;45976;49.400;8.682;2022-07-03T03:43:22;100466.34;;;18.63;70.20
60099;BME280;45976;49.400;8.682;2022-07-03T03:44:22;100462.97;;;18.85;69.34
60099;BME280;45976;49.400;8.682;2022-07-03T03:45:23;100467.03;;;18.58;70.71
60099;BME280;45976;49.400;8.682;2022-07-03T03:46:23;100469.56;;;18.53;71.11
60099;BME280;45976;49.400;8.682;2022-07-03T03:47:24;100478.78;;;18.39;71.88
60099;BME280;45976;49.400;8.682;2022-07-03T03:48:32;100481.00;;;18.42;71.80
60099;BME280;45976;49.400;8.682;2022-07-03T03:49:33;100480.22;;;18.41;71.83
60099;BME280;45976;49.400;8.682;2022-07-03T03:50:34;100480.22;;;18.41;72.10
60099;BME280;45976;49.400;8.682;2022-07-03T03:51:35;100482.22;;;18.28;72.74
60099;BME280;45976;49.400;8.682;2022-07-03T03:52:36;100480.88;;;18.37;72.47
60099;BME280;45976;49.400;8.682;2022-07-03T03:53:36;100482.66;;;18.25;73.07
60099;BME280;45976;49.400;8.682;2022-07-03T03:54:37;100481.91;;;18.18;73.64
60099;BME280;45976;49.400;8.682;2022-07-03T03:55:52;100488.84;;;18.25;73.48
60099;BME280;45976;49.400;8.682;2022-07-03T03:56:54;100487.59;;;18.28;73.25
60099;BME280;45976;49.400;8.682;2022-07-03T03:57:55;100483.47;;;18.25;73.70
60099;BME280;45976;49.400;8.682;2022-07-03T03:58:55;100480.97;;;18.30;73.55
60099;BME280;45976;49.400;8.682;2022-07-03T03:59:56;100486.41;;;18.24;73.79
60099;BME280;45976;49.400;8.682;2022-07-03T04:00:58;100486.75;;;18.27;73.85
60099;BME280;45976;49.400;8.682;2022-07-03T04:02:00;100488.69;;;18.20;74.20
60099;BME280;45976;49.400;8.682;2022-07-03T04:03:01;100485.72;;;18.28;73.76
60099;BME280;45976;49.400;8.682;2022-07-03T04:04:01;100495.34;;;18.36;73.54
60099;BME280;45976;49.400;8.682;2022-07-03T04:05:02;100495.09;;;18.37;73.19
60099;BME280;45976;49.400;8.682;2022-07-03T04:06:03;100485.84;;;18.15;74.42
60099;BME280;45976;49.400;8.682;2022-07-03T04:07:05;100486.16;;;18.25;74.28
60099;BME280;45976;49.400;8.682;2022-07-03T04:08:05;100484.53;;;18.79;71.58
60099;BME280;45976;49.400;8.682;2022-07-03T04:09:06;100489.25;;;18.65;72.09
60099;BME280;45976;49.400;8.682;2022-07-03T04:10:07;100490.31;;;18.46;72.94
60099;BME280;45976;49.400;8.682;2022-07-03T04:11:08;100488.41;;;18.28;73.87
60099;BME280;45976;49.400;8.682;2022-07-03T04:12:09;100484.59;;;18.36;73.34
60099;BME280;45976;49.400;8.682;2022-07-03T04:13:10;100488.03;;;18.25;74.14
60099;BME280;45976;49.400;8.682;2022-07-03T04:14:10;100481.81;;;18.24;73.93
60099;BME280;45976;49.400;8.682;2022-07-03T04:15:11;100489.84;;;18.49;73.31
60099;BME280;45976;49.400;8.682;2022-07-03T04:16:11;100483.56;;;18.37;73.73
60099;BME280;45976;49.400;8.682;2022-07-03T04:17:12;100483.19;;;18.33;74.12
60099;BME280;45976;49.400;8.682;2022-07-03T04:18:13;100482.97;;;18.35;74.00
60099;BME280;45976;49.400;8.682;2022-07-03T04:19:14;100491.16;;;18.40;73.77
60099;BME280;45976;49.400;8.682;2022-07-03T04:20:15;100487.63;;;18.46;73.41
60099;BME280;45976;49.400;8.682;2022-07-03T04:21:15;100480.41;;;18.40;73.84
60099;BME280;45976;49.400;8.682;2022-07-03T04:22:16;100492.41;;;18.37;74.04
60099;BME280;45976;49.400;8.682;2022-07-03T04:23:17;100493.25;;;18.38;74.09
60099;BME280;45976;49.400;8.682;2022-07-03T04:24:18;100483.94;;;18.77;72.53
60099;BME280;45976;49.400;8.682;2022-07-03T04:25:19;100486.81;;;19.53;68.42
60099;BME280;45976;49.400;8.682;2022-07-03T04:26:20;100489.06;;;20.14;65.93
60099;BME280;45976;49.400;8.682;2022-07-03T04:27:20;100495.63;;;20.06;66.28
60099;BME280;45976;49.400;8.682;2022-07-03T04:28:21;100493.84;;;19.77;67.61
60099;BME280;45976;49.400;8.682;2022-07-03T04:29:21;100495.84;;;19.29;69.16
60099;BME280;45976;49.400;8.682;2022-07-03T04:30:22;100491.28;;;18.99;70.66
60099;BME280;45976;49.400;8.682;2022-07-03T04:31:23;100488.66;;;19.11;70.17
60099;BME280;45976;49.400;8.682;2022-07-03T04:32:24;100485.97;;;19.52;68.34
60099;BME280;45976;49.400;8.682;2022-07-03T04:33:25;100495.72;;;19.65;67.80
60099;BME280;45976;49.400;8.682;2022-07-03T04:34:25;100486.94;;;19.81;67.20
60099;BME280;45976;49.400;8.682;2022-07-03T04:35:26;100489.63;;;19.58;68.49
60099;BME280;45976;49.400;8.682;2022-07-03T04:36:27;100493.41;;;20.03;66.17
60099;BME280;45976;49.400;8.682;2022-07-03T04:37:28;100491.66;;;20.09;65.62
60099;BME280;45976;49.400;8.682;2022-07-03T04:38:30;100490.09;;;20.59;63.93
60099;BME280;45976;49.400;8.682;2022-07-03T04:39:31;100491.28;;;20.91;62.57
60099;BME280;45976;49.400;8.682;2022-07-03T04:40:32;100490.09;;;20.99;61.93
60099;BME280;45976;49.400;8.682;2022-07-03T04:41:33;100486.75;;;20.80;62.87
60099;BME280;45976;49.400;8.682;2022-07-03T04:42:33;100494.38;;;20.72;63.07
60099;BME280;45976;49.400;8.682;2022-07-03T04:43:35;100496.00;;;20.21;65.66
60099;BME280;45976;49.400;8.682;2022-07-03T04:44:38;100493.75;;;20.41;64.54
60099;BME280;45976;49.400;8.682;2022-07-03T04:45:39;100501.25;;;20.51;64.82
60099;BME280;45976;49.400;8.682;2022-07-03T04:46:40;100500.00;;;20.82;62.92
60099;BME280;45976;49.400;8.682;2022-07-03T04:47:40;100498.78;;;20.89;63.14
60099;BME280;45976;49.400;8.682;2022-07-03T04:48:41;100500.22;;;21.20;61.88
60099;BME280;45976;49.400;8.682;2022-07-03T04:49:42;100489.50;;;20.97;62.48
60099;BME280;45976;49.400;8.682;2022-07-03T04:50:43;100500.50;;;20.67;64.58
60099;BME280;45976;49.400;8.682;2022-07-03T04:51:43;100502.88;;;20.92;63.36
60099;BME280;45976;49.400;8.682;2022-07-03T04:52:44;100506.84;;;21.01;62.78
60099;BME280;45976;49.400;8.682;2022-07-03T04:53:44;100509.09;;;21.04;63.24
60099;BME280;45976;49.400;8.682;2022-07-03T04:54:45;100503.47;;;20.94;64.07
60099;BME280;45976;49.400;8.682;2022-07-03T04:55:46;100499.16;;;20.93;64.31
60099;BME280;45976;49.400;8.682;2022-07-03T04:56:46;100506.69;;;20.67;65.38
60099;BME280;45976;49.400;8.682;2022-07-03T04:57:47;100510.19;;;20.80;65.32
60099;BME280;45976;49.400;8.682;2022-07-03T04:58:47;100502.75;;;20.98;63.94
60099;BME280;45976;49.400;8.682;2022-07-03T04:59:48;100514.47;;;21.32;62.72
60099;BME280;45976;49.400;8.682;2022-07-03T05:00:49;100502.13;;;21.36;62.37
60099;BME280;45976;49.400;8.682;2022-07-03T05:01:49;100503.31;;;21.12;63.85
60099;BME280;45976;49.400;8.682;2022-07-03T05:02:50;100508.16;;;21.26;63.92
60099;BME280;45976;49.400;8.682;2022-07-03T05:03:51;100507.56;;;21.08;65.13
60099;BME280;45976;49.400;8.682;2022-07-03T05:04:51;100508.13;;;21.10;64.36
60099;BME280;45976;49.400;8.682;2022-07-03T05:05:52;100504.97;;;21.29;64.54
60099;BME280;45976;49.400;8.682;2022-07-03T05:06:53;100509.06;;;21.32;63.87
60099;BME280;45976;49.400;8.682;2022-07-03T05:07:54;100508.09;;;21.21;64.31
60099;BME280;45976;49.400;8.682;2022-07-03T05:08:55;100506.75;;;21.24;64.54
60099;BME280;45976;49.400;8.682;2022-07-03T05:09:56;100505.81;;;21.30;63.89
60099;BME280;45976;49.400;8.682;2022-07-03T05:10:57;100503.19;;;21.35;64.08
60099;BME280;45976;49.400;8.682;2022-07-03T05:11:58;100506.28;;;21.27;64.52
60099;BME280;45976;49.400;8.682;2022-07-03T05:12:58;100500.38;;;21.13;65.84
60099;BME280;45976;49.400;8.682;2022-07-03T05:13:59;100499.31;;;21.03;66.18
60099;BME280;45976;49.400;8.682;2022-07-03T05:15:00;100498.47;;;21.42;63.31
60099;BME280;45976;49.400;8.682;2022-07-03T05:16:00;100500.72;;;21.17;65.59
60099;BME280;45976;49.400;8.682;2022-07-03T05:17:01;100500.41;;;21.30;65.29
60099;BME280;45976;49.400;8.682;2022-07-03T05:18:01;100495.91;;;21.19;65.10
60099;BME280;45976;49.400;8.682;2022-07-03T05:19:02;100500.25;;;21.36;64.73
60099;BME280;45976;49.400;8.682;2022-07-03T05:20:04;100500.88;;;20.99;65.96
60099;BME280;45976;49.400;8.682;2022-07-03T05:21:24;100503.75;;;21.37;64.50
60099;BME280;45976;49.400;8.682;2022-07-03T05:22:25;100507.44;;;21.31;64.74
60099;BME280;45976;49.400;8.682;2022-07-03T05:23:26;100498.50;;;21.30;64.51
60099;BME280;45976;49.400;8.682;2022-07-03T05:24:26;100507.94;;;21.28;64.83
60099;BME280;45976;49.400;8.682;2022-07-03T05:25:30;100502.56;;;21.45;64.29
60099;BME280;45976;49.400;8.682;2022-07-03T05:26:31;100501.03;;;21.65;63.66
60099;BME280;45976;49.400;8.682;2022-07-03T05:27:36;100501.19;;;21.75;63.26
60099;BME280;45976;49.400;8.682;2022-07-03T05:28:37;100502.53;;;21.89;61.94
60099;BME280;45976;49.400;8.682;2022-07-03T05:29:38;100505.84;;;21.80;62.78
60099;BME280;45976;49.400;8.682;2022-07-03T05:30:38;100498.75;;;21.29;65.71
60099;BME280;45976;49.400;8.682;2022-07-03T05:31:39;100499.75;;;21.23;66.26
60099;BME280;45976;49.400;8.682;2022-07-03T05:32:40;100503.53;;;21.55;64.54
60099;BME280;45976;49.400;8.682;2022-07-03T05:33:41;100506.56;;;21.42;64.94
60099;BME280;45976;49.400;8.682;2022-07-03T05:34:41;100508.09;;;21.38;65.85
60099;BME280;45976;49.400;8.682;2022-07-03T05:35:42;100506.56;;;21.42;66.11
60099;BME280;45976;49.400;8.682;2022-07-03T05:36:43;100510.06;;;21.59;65.30
60099;BME280;45976;49.400;8.682;2022-07-03T05:37:44;100514.84;;;21.52;66.28
60099;BME280;45976;49.400;8.682;2022-07-03T05:38:44;100512.19;;;21.57;65.26
60099;BME280;45976;49.400;8.682;2022-07-03T05:40:05;100512.63;;;21.66;64.76
60099;BME280;45976;49.400;8.682;2022-07-03T05:41:06;100516.88;;;21.45;65.86
60099;BME280;45976;49.400;8.682;2022-07-03T05:42:07;100504.03;;;21.52;65.78
60099;BME280;45976;49.400;8.682;2022-07-03T05:43:08;100510.97;;;21.48;65.40
60099;BME280;45976;49.400;8.682;2022-07-03T05:44:08;100513.94;;;21.63;65.21
60099;BME280;45976;49.400;8.682;2022-07-03T05:45:10;100515.97;;;21.56;65.59
60099;BME280;45976;49.400;8.682;2022-07-03T05:46:11;100513.72;;;21.98;64.06
60099;BME280;45976;49.400;8.682;2022-07-03T05:47:12;100518.78;;;22.11;63.98
60099;BME280;45976;49.400;8.682;2022-07-03T05:48:12;100514.88;;;22.02;64.57
60099;BME280;45976;49.400;8.682;2022-07-03T05:49:13;100511.84;;;21.98;64.41
60099;BME280;45976;49.400;8.682;2022-07-03T05:50:14;100516.91;;;22.11;63.78
60099;BME280;45976;49.400;8.682;2022-07-03T05:51:15;100513.69;;;22.14;63.26
60099;BME280;45976;49.400;8.682;2022-07-03T05:52:15;100513.63;;;22.48;61.99
60099;BME280;45976;49.400;8.682;2022-07-03T05:53:16;100520.22;;;22.19;63.25
60099;BME280;45976;49.400;8.682;2022-07-03T05:54:17;100515.44;;;22.21;63.66
60099;BME280;45976;49.400;8.682;2022-07-03T05:55:18;100520.19;;;22.13;63.94
60099;BME280;45976;49.400;8.682;2022-07-03T05:56:18;100519.03;;;22.48;63.05
60099;BME280;45976;49.400;8.682;2022-07-03T05:57:19;100526.56;;;22.62;61.79
60099;BME280;45976;49.400;8.682;2022-07-03T05:58:20;100520.88;;;22.42;63.20
60099;BME280;45976;49.400;8.682;2022-07-03T05:59:21;100527.81;;;22.76;61.67
60099;BME280;45976;49.400;8.682;2022-07-03T06:00:22;100522.00;;;23.11;60.70